sensor_id;sensor_type;location;lat;lon;timestamp;temperature;humidity
13796;SHT30;40911;51.552;9.874;2024-02-15T00:00:18;10.51;97.40
13796;SHT30;40911;51.552;9.874;2024-02-15T00:02:41;10.61;97.29
13796;SHT30;40911;51.552;9.874;2024-02-15T00:05:05;10.64;97.13
13796;SHT30;40911;51.552;9.874;2024-02-15T00:07:28;10.60;97.22
13796;SHT30;40911;51.552;9.874;2024-02-15T00:09:49;10.65;97.25
13796;SHT30;40911;51.552;9.874;2024-02-15T00:12:11;10.67;97.26
13796;SHT30;40911;51.552;9.874;2024-02-15T00:14:33;10.65;97.29
13796;SHT30;40911;51.552;9.874;2024-02-15T00:16:55;10.65;97.20
13796;SHT30;40911;51.552;9.874;2024-02-15T00:19:17;10.71;97.16
13796;SHT30;40911;51.552;9.874;2024-02-15T00:21:42;10.69;97.27
13796;SHT30;40911;51.552;9.874;2024-02-15T00:24:04;10.78;97.02
13796;SHT30;40911;51.552;9.874;2024-02-15T00:26:27;10.75;97.07
13796;SHT30;40911;51.552;9.874;2024-02-15T00:28:49;10.69;97.14
13796;SHT30;40911;51.552;9.874;2024-02-15T00:31:10;10.71;97.21
13796;SHT30;40911;51.552;9.874;2024-02-15T00:33:33;10.76;97.10
13796;SHT30;40911;51.552;9.874;2024-02-15T00:35:56;10.74;97.14
13796;SHT30;40911;51.552;9.874;2024-02-15T00:38:18;10.71;97.20
13796;SHT30;40911;51.552;9.874;2024-02-15T00:40:40;10.74;97.16
13796;SHT30;40911;51.552;9.874;2024-02-15T00:43:01;10.72;97.28
13796;SHT30;40911;51.552;9.874;2024-02-15T00:45:23;10.71;97.10
13796;SHT30;40911;51.552;9.874;2024-02-15T00:47:45;10.71;97.37
13796;SHT30;40911;51.552;9.874;2024-02-15T00:50:07;10.76;97.36
13796;SHT30;40911;51.552;9.874;2024-02-15T00:52:30;10.69;97.23
13796;SHT30;40911;51.552;9.874;2024-02-15T00:54:52;10.67;97.51
13796;SHT30;40911;51.552;9.874;2024-02-15T00:57:14;10.65;97.45
13796;SHT30;40911;51.552;9.874;2024-02-15T00:59:35;10.74;97.40
13796;SHT30;40911;51.552;9.874;2024-02-15T01:01:57;10.75;97.20
13796;SHT30;40911;51.552;9.874;2024-02-15T01:04:18;10.72;97.28
13796;SHT30;40911;51.552;9.874;2024-02-15T01:06:40;10.74;97.45
13796;SHT30;40911;51.552;9.874;2024-02-15T01:09:04;10.79;97.36
13796;SHT30;40911;51.552;9.874;2024-02-15T01:11:25;10.76;97.37
13796;SHT30;40911;51.552;9.874;2024-02-15T01:13:49;10.65;97.48
13796;SHT30;40911;51.552;9.874;2024-02-15T01:16:11;10.69;97.55
13796;SHT30;40911;51.552;9.874;2024-02-15T01:18:32;10.69;97.56
13796;SHT30;40911;51.552;9.874;2024-02-15T01:20:55;10.72;97.64
13796;SHT30;40911;51.552;9.874;2024-02-15T01:23:16;10.75;97.58
13796;SHT30;40911;51.552;9.874;2024-02-15T01:25:39;10.72;97.65
13796;SHT30;40911;51.552;9.874;2024-02-15T01:28:01;10.75;97.55
13796;SHT30;40911;51.552;9.874;2024-02-15T01:30:23;10.76;97.67
13796;SHT30;40911;51.552;9.874;2024-02-15T01:32:44;10.69;97.88
13796;SHT30;40911;51.552;9.874;2024-02-15T01:35:07;10.71;98.31
13796;SHT30;40911;51.552;9.874;2024-02-15T01:37:30;10.61;98.46
13796;SHT30;40911;51.552;9.874;2024-02-15T01:39:52;10.61;98.63
13796;SHT30;40911;51.552;9.874;2024-02-15T01:42:14;10.62;98.65
13796;SHT30;40911;51.552;9.874;2024-02-15T01:44:36;10.58;98.70
13796;SHT30;40911;51.552;9.874;2024-02-15T01:47:00;10.62;98.71
13796;SHT30;40911;51.552;9.874;2024-02-15T01:49:22;10.67;98.58
13796;SHT30;40911;51.552;9.874;2024-02-15T01:51:44;10.61;98.57
13796;SHT30;40911;51.552;9.874;2024-02-15T01:54:06;10.57;98.60
13796;SHT30;40911;51.552;9.874;2024-02-15T01:56:29;10.58;98.66
13796;SHT30;40911;51.552;9.874;2024-02-15T01:58:52;10.55;98.63
13796;SHT30;40911;51.552;9.874;2024-02-15T02:01:14;10.54;98.68
13796;SHT30;40911;51.552;9.874;2024-02-15T02:03:36;10.49;98.62
13796;SHT30;40911;51.552;9.874;2024-02-15T02:05:58;10.54;98.73
13796;SHT30;40911;51.552;9.874;2024-02-15T02:08:20;10.54;98.64
13796;SHT30;40911;51.552;9.874;2024-02-15T02:10:42;10.52;98.59
13796;SHT30;40911;51.552;9.874;2024-02-15T02:13:06;10.49;98.66
13796;SHT30;40911;51.552;9.874;2024-02-15T02:15:28;10.49;98.66
13796;SHT30;40911;51.552;9.874;2024-02-15T02:17:51;10.49;98.69
13796;SHT30;40911;51.552;9.874;2024-02-15T02:20:13;10.51;98.71
13796;SHT30;40911;51.552;9.874;2024-02-15T02:22:34;10.52;98.64
13796;SHT30;40911;51.552;9.874;2024-02-15T02:25:00;10.55;98.70
13796;SHT30;40911;51.552;9.874;2024-02-15T02:27:23;10.55;98.77
13796;SHT30;40911;51.552;9.874;2024-02-15T02:29:45;10.52;98.75
13796;SHT30;40911;51.552;9.874;2024-02-15T02:32:07;10.55;98.76
13796;SHT30;40911;51.552;9.874;2024-02-15T02:34:29;10.49;98.93
13796;SHT30;40911;51.552;9.874;2024-02-15T02:36:50;10.49;99.00
13796;SHT30;40911;51.552;9.874;2024-02-15T02:39:12;10.54;99.04
13796;SHT30;40911;51.552;9.874;2024-02-15T02:41:35;10.55;99.20
13796;SHT30;40911;51.552;9.874;2024-02-15T02:43:56;10.51;99.04
13796;SHT30;40911;51.552;9.874;2024-02-15T02:46:18;10.52;99.10
13796;SHT30;40911;51.552;9.874;2024-02-15T02:48:40;10.57;98.96
13796;SHT30;40911;51.552;9.874;2024-02-15T02:51:02;10.58;98.94
13796;SHT30;40911;51.552;9.874;2024-02-15T02:53:24;10.60;99.00
13796;SHT30;40911;51.552;9.874;2024-02-15T02:55:45;10.62;98.82
13796;SHT30;40911;51.552;9.874;2024-02-15T02:58:08;10.64;98.77
13796;SHT30;40911;51.552;9.874;2024-02-15T03:00:30;10.64;98.70
13796;SHT30;40911;51.552;9.874;2024-02-15T03:02:52;10.62;98.73
13796;SHT30;40911;51.552;9.874;2024-02-15T03:05:17;10.60;98.82
13796;SHT30;40911;51.552;9.874;2024-02-15T03:07:41;10.58;98.77
13796;SHT30;40911;51.552;9.874;2024-02-15T03:10:03;10.61;98.77
13796;SHT30;40911;51.552;9.874;2024-02-15T03:12:28;10.62;98.67
13796;SHT30;40911;51.552;9.874;2024-02-15T03:14:51;10.65;98.74
13796;SHT30;40911;51.552;9.874;2024-02-15T03:17:15;10.71;98.65
13796;SHT30;40911;51.552;9.874;2024-02-15T03:19:37;10.61;98.65
13796;SHT30;40911;51.552;9.874;2024-02-15T03:21:58;10.62;98.74
13796;SHT30;40911;51.552;9.874;2024-02-15T03:24:20;10.64;98.75
13796;SHT30;40911;51.552;9.874;2024-02-15T03:26:42;10.61;98.78
13796;SHT30;40911;51.552;9.874;2024-02-15T03:29:04;10.60;98.71
13796;SHT30;40911;51.552;9.874;2024-02-15T03:31:29;10.58;98.78
13796;SHT30;40911;51.552;9.874;2024-02-15T03:33:51;10.57;98.89
13796;SHT30;40911;51.552;9.874;2024-02-15T03:36:15;10.60;99.03
13796;SHT30;40911;51.552;9.874;2024-02-15T03:38:40;10.57;99.09
13796;SHT30;40911;51.552;9.874;2024-02-15T03:41:01;10.51;99.06
13796;SHT30;40911;51.552;9.874;2024-02-15T03:43:23;10.54;99.16
13796;SHT30;40911;51.552;9.874;2024-02-15T03:45:45;10.52;99.25
13796;SHT30;40911;51.552;9.874;2024-02-15T03:48:08;10.52;99.34
13796;SHT30;40911;51.552;9.874;2024-02-15T03:50:30;10.49;99.30
13796;SHT30;40911;51.552;9.874;2024-02-15T03:52:53;10.48;99.26
13796;SHT30;40911;51.552;9.874;2024-02-15T03:55:15;10.44;99.40
13796;SHT30;40911;51.552;9.874;2024-02-15T03:57:37;10.44;99.45
13796;SHT30;40911;51.552;9.874;2024-02-15T04:00:00;10.42;99.43
13796;SHT30;40911;51.552;9.874;2024-02-15T04:02:23;10.44;99.39
13796;SHT30;40911;51.552;9.874;2024-02-15T04:04:48;10.40;99.45
13796;SHT30;40911;51.552;9.874;2024-02-15T04:07:10;10.40;99.47
13796;SHT30;40911;51.552;9.874;2024-02-15T04:09:32;10.38;99.53
13796;SHT30;40911;51.552;9.874;2024-02-15T04:11:55;10.38;99.61
13796;SHT30;40911;51.552;9.874;2024-02-15T04:14:17;10.38;99.50
13796;SHT30;40911;51.552;9.874;2024-02-15T04:16:39;10.40;99.60
13796;SHT30;40911;51.552;9.874;2024-02-15T04:19:01;10.34;99.53
13796;SHT30;40911;51.552;9.874;2024-02-15T04:21:24;10.40;99.52
13796;SHT30;40911;51.552;9.874;2024-02-15T04:23:47;10.38;99.44
13796;SHT30;40911;51.552;9.874;2024-02-15T04:26:09;10.41;99.34
13796;SHT30;40911;51.552;9.874;2024-02-15T04:28:34;10.49;99.38
13796;SHT30;40911;51.552;9.874;2024-02-15T04:30:55;10.44;99.20
13796;SHT30;40911;51.552;9.874;2024-02-15T04:33:17;10.45;99.24
13796;SHT30;40911;51.552;9.874;2024-02-15T04:35:38;10.48;99.25
13796;SHT30;40911;51.552;9.874;2024-02-15T04:38:02;10.48;99.18
13796;SHT30;40911;51.552;9.874;2024-02-15T04:40:24;10.49;99.15
13796;SHT30;40911;51.552;9.874;2024-02-15T04:42:45;10.48;99.20
13796;SHT30;40911;51.552;9.874;2024-02-15T04:45:08;10.49;99.24
13796;SHT30;40911;51.552;9.874;2024-02-15T04:47:31;10.51;99.27
13796;SHT30;40911;51.552;9.874;2024-02-15T04:49:53;10.52;99.13
13796;SHT30;40911;51.552;9.874;2024-02-15T04:52:15;10.48;99.17
13796;SHT30;40911;51.552;9.874;2024-02-15T04:54:39;10.48;99.21
13796;SHT30;40911;51.552;9.874;2024-02-15T04:57:00;10.48;99.22
13796;SHT30;40911;51.552;9.874;2024-02-15T04:59:22;10.52;99.22
13796;SHT30;40911;51.552;9.874;2024-02-15T05:01:46;10.51;99.14
13796;SHT30;40911;51.552;9.874;2024-02-15T05:04:07;10.52;99.15
13796;SHT30;40911;51.552;9.874;2024-02-15T05:06:30;10.51;99.08
13796;SHT30;40911;51.552;9.874;2024-02-15T05:08:52;10.52;99.08
13796;SHT30;40911;51.552;9.874;2024-02-15T05:11:18;10.54;99.10
13796;SHT30;40911;51.552;9.874;2024-02-15T05:13:40;10.52;99.12
13796;SHT30;40911;51.552;9.874;2024-02-15T05:16:01;10.51;99.17
13796;SHT30;40911;51.552;9.874;2024-02-15T05:18:23;10.52;99.09
13796;SHT30;40911;51.552;9.874;2024-02-15T05:20:44;10.51;99.09
13796;SHT30;40911;51.552;9.874;2024-02-15T05:23:06;10.49;99.06
13796;SHT30;40911;51.552;9.874;2024-02-15T05:25:28;10.51;99.16
13796;SHT30;40911;51.552;9.874;2024-02-15T05:27:54;10.48;99.10
13796;SHT30;40911;51.552;9.874;2024-02-15T05:30:16;10.51;99.16
13796;SHT30;40911;51.552;9.874;2024-02-15T05:32:38;10.49;99.14
13796;SHT30;40911;51.552;9.874;2024-02-15T05:35:05;10.51;99.15
13796;SHT30;40911;51.552;9.874;2024-02-15T05:37:28;10.49;99.14
13796;SHT30;40911;51.552;9.874;2024-02-15T05:39:50;10.49;99.27
13796;SHT30;40911;51.552;9.874;2024-02-15T05:42:14;10.47;99.23
13796;SHT30;40911;51.552;9.874;2024-02-15T05:44:37;10.49;99.23
13796;SHT30;40911;51.552;9.874;2024-02-15T05:46:59;10.49;99.17
13796;SHT30;40911;51.552;9.874;2024-02-15T05:49:20;10.52;99.24
13796;SHT30;40911;51.552;9.874;2024-02-15T05:51:44;10.51;99.02
13796;SHT30;40911;51.552;9.874;2024-02-15T05:54:07;10.58;98.91
13796;SHT30;40911;51.552;9.874;2024-02-15T05:56:29;10.58;98.85
13796;SHT30;40911;51.552;9.874;2024-02-15T05:58:51;10.55;98.81
13796;SHT30;40911;51.552;9.874;2024-02-15T06:01:14;10.57;98.82
13796;SHT30;40911;51.552;9.874;2024-02-15T06:03:37;10.55;98.85
13796;SHT30;40911;51.552;9.874;2024-02-15T06:06:05;10.54;98.92
13796;SHT30;40911;51.552;9.874;2024-02-15T06:08:28;10.57;98.97
13796;SHT30;40911;51.552;9.874;2024-02-15T06:10:50;10.58;98.78
13796;SHT30;40911;51.552;9.874;2024-02-15T06:13:12;10.58;98.79
13796;SHT30;40911;51.552;9.874;2024-02-15T06:15:34;10.60;98.82
13796;SHT30;40911;51.552;9.874;2024-02-15T06:17:57;10.61;98.65
13796;SHT30;40911;51.552;9.874;2024-02-15T06:20:19;10.60;98.82
13796;SHT30;40911;51.552;9.874;2024-02-15T06:22:41;10.60;98.80
13796;SHT30;40911;51.552;9.874;2024-02-15T06:25:03;10.54;98.96
13796;SHT30;40911;51.552;9.874;2024-02-15T06:27:25;10.60;98.98
13796;SHT30;40911;51.552;9.874;2024-02-15T06:29:47;10.55;98.94
13796;SHT30;40911;51.552;9.874;2024-02-15T06:32:26;10.52;98.92
13796;SHT30;40911;51.552;9.874;2024-02-15T06:35:09;10.58;99.03
13796;SHT30;40911;51.552;9.874;2024-02-15T06:37:49;10.55;98.96
13796;SHT30;40911;51.552;9.874;2024-02-15T06:40:28;10.57;99.05
13796;SHT30;40911;51.552;9.874;2024-02-15T06:42:51;10.57;98.99
13796;SHT30;40911;51.552;9.874;2024-02-15T06:45:12;10.58;98.98
13796;SHT30;40911;51.552;9.874;2024-02-15T06:47:34;10.55;99.01
13796;SHT30;40911;51.552;9.874;2024-02-15T06:49:55;10.57;99.00
13796;SHT30;40911;51.552;9.874;2024-02-15T06:52:20;10.58;98.89
13796;SHT30;40911;51.552;9.874;2024-02-15T06:54:42;10.60;98.90
13796;SHT30;40911;51.552;9.874;2024-02-15T06:57:05;10.60;98.82
13796;SHT30;40911;51.552;9.874;2024-02-15T06:59:27;10.62;98.86
13796;SHT30;40911;51.552;9.874;2024-02-15T07:01:49;10.67;98.74
13796;SHT30;40911;51.552;9.874;2024-02-15T07:04:12;10.68;98.66
13796;SHT30;40911;51.552;9.874;2024-02-15T07:06:34;10.72;98.67
13796;SHT30;40911;51.552;9.874;2024-02-15T07:08:57;10.72;98.63
13796;SHT30;40911;51.552;9.874;2024-02-15T07:11:18;10.78;98.66
13796;SHT30;40911;51.552;9.874;2024-02-15T07:13:40;10.82;98.50
13796;SHT30;40911;51.552;9.874;2024-02-15T07:16:02;10.86;98.35
13796;SHT30;40911;51.552;9.874;2024-02-15T07:18:24;10.89;98.43
13796;SHT30;40911;51.552;9.874;2024-02-15T07:20:46;10.92;98.34
13796;SHT30;40911;51.552;9.874;2024-02-15T07:23:08;10.97;98.37
13796;SHT30;40911;51.552;9.874;2024-02-15T07:25:31;10.99;98.14
13796;SHT30;40911;51.552;9.874;2024-02-15T07:27:52;11.06;98.13
13796;SHT30;40911;51.552;9.874;2024-02-15T07:30:14;11.09;98.01
13796;SHT30;40911;51.552;9.874;2024-02-15T07:32:36;11.12;97.97
13796;SHT30;40911;51.552;9.874;2024-02-15T07:34:57;11.12;97.97
13796;SHT30;40911;51.552;9.874;2024-02-15T07:37:20;11.12;97.90
13796;SHT30;40911;51.552;9.874;2024-02-15T07:39:46;11.14;97.94
13796;SHT30;40911;51.552;9.874;2024-02-15T07:42:09;11.13;97.84
13796;SHT30;40911;51.552;9.874;2024-02-15T07:44:30;11.16;97.69
13796;SHT30;40911;51.552;9.874;2024-02-15T07:46:55;11.17;97.85
13796;SHT30;40911;51.552;9.874;2024-02-15T07:49:16;11.13;97.93
13796;SHT30;40911;51.552;9.874;2024-02-15T07:51:39;11.13;97.95
13796;SHT30;40911;51.552;9.874;2024-02-15T07:54:00;11.13;97.95
13796;SHT30;40911;51.552;9.874;2024-02-15T07:56:22;11.13;98.04
13796;SHT30;40911;51.552;9.874;2024-02-15T07:58:48;11.14;97.94
13796;SHT30;40911;51.552;9.874;2024-02-15T08:01:12;11.16;97.84
13796;SHT30;40911;51.552;9.874;2024-02-15T08:03:34;11.16;97.94
13796;SHT30;40911;51.552;9.874;2024-02-15T08:05:55;11.20;97.91
13796;SHT30;40911;51.552;9.874;2024-02-15T08:08:17;11.20;97.76
13796;SHT30;40911;51.552;9.874;2024-02-15T08:10:38;11.22;97.75
13796;SHT30;40911;51.552;9.874;2024-02-15T08:13:00;11.20;97.76
13796;SHT30;40911;51.552;9.874;2024-02-15T08:15:24;11.24;97.72
13796;SHT30;40911;51.552;9.874;2024-02-15T08:17:47;11.26;97.77
13796;SHT30;40911;51.552;9.874;2024-02-15T08:20:10;11.28;97.65
13796;SHT30;40911;51.552;9.874;2024-02-15T08:22:32;11.33;97.68
13796;SHT30;40911;51.552;9.874;2024-02-15T08:24:54;11.37;97.46
13796;SHT30;40911;51.552;9.874;2024-02-15T08:27:15;11.37;97.50
13796;SHT30;40911;51.552;9.874;2024-02-15T08:29:37;11.40;97.46
13796;SHT30;40911;51.552;9.874;2024-02-15T08:32:00;11.46;97.19
13796;SHT30;40911;51.552;9.874;2024-02-15T08:34:22;11.44;97.43
13796;SHT30;40911;51.552;9.874;2024-02-15T08:36:43;11.50;97.07
13796;SHT30;40911;51.552;9.874;2024-02-15T08:39:05;11.54;97.01
13796;SHT30;40911;51.552;9.874;2024-02-15T08:41:28;11.54;97.12
13796;SHT30;40911;51.552;9.874;2024-02-15T08:43:50;11.58;97.20
13796;SHT30;40911;51.552;9.874;2024-02-15T08:46:11;11.62;97.03
13796;SHT30;40911;51.552;9.874;2024-02-15T08:48:34;11.64;96.73
13796;SHT30;40911;51.552;9.874;2024-02-15T08:50:56;11.67;96.75
13796;SHT30;40911;51.552;9.874;2024-02-15T08:53:18;11.71;96.57
13796;SHT30;40911;51.552;9.874;2024-02-15T08:55:39;11.69;96.53
13796;SHT30;40911;51.552;9.874;2024-02-15T08:58:01;11.67;96.62
13796;SHT30;40911;51.552;9.874;2024-02-15T09:00:24;11.69;96.71
13796;SHT30;40911;51.552;9.874;2024-02-15T09:02:47;11.75;96.56
13796;SHT30;40911;51.552;9.874;2024-02-15T09:05:10;11.81;95.89
13796;SHT30;40911;51.552;9.874;2024-02-15T09:07:34;11.86;95.51
13796;SHT30;40911;51.552;9.874;2024-02-15T09:09:56;11.88;95.26
13796;SHT30;40911;51.552;9.874;2024-02-15T09:12:18;11.93;95.21
13796;SHT30;40911;51.552;9.874;2024-02-15T09:14:40;11.99;95.14
13796;SHT30;40911;51.552;9.874;2024-02-15T09:17:01;11.98;95.21
13796;SHT30;40911;51.552;9.874;2024-02-15T09:19:27;12.06;95.11
13796;SHT30;40911;51.552;9.874;2024-02-15T09:21:50;12.02;95.18
13796;SHT30;40911;51.552;9.874;2024-02-15T09:24:12;12.08;94.82
13796;SHT30;40911;51.552;9.874;2024-02-15T09:26:36;12.08;94.84
13796;SHT30;40911;51.552;9.874;2024-02-15T09:28:58;12.15;95.10
13796;SHT30;40911;51.552;9.874;2024-02-15T09:31:19;12.15;94.65
13796;SHT30;40911;51.552;9.874;2024-02-15T09:33:41;12.13;94.54
13796;SHT30;40911;51.552;9.874;2024-02-15T09:36:03;12.15;94.83
13796;SHT30;40911;51.552;9.874;2024-02-15T09:38:26;12.16;94.85
13796;SHT30;40911;51.552;9.874;2024-02-15T09:40:48;12.22;95.18
13796;SHT30;40911;51.552;9.874;2024-02-15T09:43:10;12.25;94.87
13796;SHT30;40911;51.552;9.874;2024-02-15T09:45:34;12.30;94.86
13796;SHT30;40911;51.552;9.874;2024-02-15T09:47:59;12.40;94.85
13796;SHT30;40911;51.552;9.874;2024-02-15T09:50:28;12.43;94.70
13796;SHT30;40911;51.552;9.874;2024-02-15T09:52:52;12.50;94.17
13796;SHT30;40911;51.552;9.874;2024-02-15T09:55:16;12.54;93.82
13796;SHT30;40911;51.552;9.874;2024-02-15T09:57:38;12.61;93.87
13796;SHT30;40911;51.552;9.874;2024-02-15T09:59:59;12.65;94.10
13796;SHT30;40911;51.552;9.874;2024-02-15T10:02:24;12.67;93.06
13796;SHT30;40911;51.552;9.874;2024-02-15T10:04:46;12.69;93.64
13796;SHT30;40911;51.552;9.874;2024-02-15T10:07:07;12.65;93.23
13796;SHT30;40911;51.552;9.874;2024-02-15T10:09:30;12.69;93.37
13796;SHT30;40911;51.552;9.874;2024-02-15T10:11:55;12.74;93.23
13796;SHT30;40911;51.552;9.874;2024-02-15T10:14:17;12.74;92.83
13796;SHT30;40911;51.552;9.874;2024-02-15T10:16:41;12.72;93.22
13796;SHT30;40911;51.552;9.874;2024-02-15T10:19:08;12.69;92.93
13796;SHT30;40911;51.552;9.874;2024-02-15T10:21:30;12.76;93.10
13796;SHT30;40911;51.552;9.874;2024-02-15T10:24:05;12.81;92.90
13796;SHT30;40911;51.552;9.874;2024-02-15T10:26:28;12.89;92.68
13796;SHT30;40911;51.552;9.874;2024-02-15T10:31:28;12.93;92.41
13796;SHT30;40911;51.552;9.874;2024-02-15T10:33:52;12.91;92.73
13796;SHT30;40911;51.552;9.874;2024-02-15T10:36:14;12.89;93.01
13796;SHT30;40911;51.552;9.874;2024-02-15T10:38:37;12.95;93.25
13796;SHT30;40911;51.552;9.874;2024-02-15T10:41:03;12.99;93.29
13796;SHT30;40911;51.552;9.874;2024-02-15T10:43:26;12.95;93.44
13796;SHT30;40911;51.552;9.874;2024-02-15T10:45:48;12.92;93.09
13796;SHT30;40911;51.552;9.874;2024-02-15T10:48:12;12.89;93.20
13796;SHT30;40911;51.552;9.874;2024-02-15T10:50:34;12.93;93.17
13796;SHT30;40911;51.552;9.874;2024-02-15T10:52:55;12.89;92.94
13796;SHT30;40911;51.552;9.874;2024-02-15T10:55:25;12.84;92.85
13796;SHT30;40911;51.552;9.874;2024-02-15T10:57:55;12.85;93.04
13796;SHT30;40911;51.552;9.874;2024-02-15T11:00:21;12.84;93.52
13796;SHT30;40911;51.552;9.874;2024-02-15T11:02:52;12.88;93.73
13796;SHT30;40911;51.552;9.874;2024-02-15T11:05:17;13.02;94.16
13796;SHT30;40911;51.552;9.874;2024-02-15T11:07:44;12.99;93.92
13796;SHT30;40911;51.552;9.874;2024-02-15T11:10:05;13.01;93.79
13796;SHT30;40911;51.552;9.874;2024-02-15T11:12:29;13.02;94.00
13796;SHT30;40911;51.552;9.874;2024-02-15T11:14:51;13.09;94.31
13796;SHT30;40911;51.552;9.874;2024-02-15T11:17:45;13.01;93.84
13796;SHT30;40911;51.552;9.874;2024-02-15T11:20:09;12.98;94.14
13796;SHT30;40911;51.552;9.874;2024-02-15T11:22:33;12.91;93.97
13796;SHT30;40911;51.552;9.874;2024-02-15T11:24:56;12.84;93.64
13796;SHT30;40911;51.552;9.874;2024-02-15T11:27:27;12.81;93.89
13796;SHT30;40911;51.552;9.874;2024-02-15T11:29:50;12.76;93.75
13796;SHT30;40911;51.552;9.874;2024-02-15T11:32:43;12.75;93.49
13796;SHT30;40911;51.552;9.874;2024-02-15T11:35:08;12.74;93.62
13796;SHT30;40911;51.552;9.874;2024-02-15T11:37:51;12.72;93.49
13796;SHT30;40911;51.552;9.874;2024-02-15T11:40:13;12.72;93.72
13796;SHT30;40911;51.552;9.874;2024-02-15T11:42:35;12.71;93.86
13796;SHT30;40911;51.552;9.874;2024-02-15T11:45:03;12.74;94.43
13796;SHT30;40911;51.552;9.874;2024-02-15T11:47:26;12.76;94.63
13796;SHT30;40911;51.552;9.874;2024-02-15T11:49:48;12.75;94.39
13796;SHT30;40911;51.552;9.874;2024-02-15T11:52:11;12.78;94.43
13796;SHT30;40911;51.552;9.874;2024-02-15T11:54:34;12.79;94.41
13796;SHT30;40911;51.552;9.874;2024-02-15T11:56:57;12.91;94.88
13796;SHT30;40911;51.552;9.874;2024-02-15T11:59:39;12.84;94.42
13796;SHT30;40911;51.552;9.874;2024-02-15T12:02:14;12.88;94.50
13796;SHT30;40911;51.552;9.874;2024-02-15T12:04:55;12.85;94.50
13796;SHT30;40911;51.552;9.874;2024-02-15T12:07:35;12.89;95.03
13796;SHT30;40911;51.552;9.874;2024-02-15T12:10:18;12.88;95.30
13796;SHT30;40911;51.552;9.874;2024-02-15T12:12:57;12.75;94.97
13796;SHT30;40911;51.552;9.874;2024-02-15T12:15:36;12.79;95.26
13796;SHT30;40911;51.552;9.874;2024-02-15T12:18:15;12.71;95.01
13796;SHT30;40911;51.552;9.874;2024-02-15T12:20:55;12.67;95.04
13796;SHT30;40911;51.552;9.874;2024-02-15T12:23:16;12.64;95.39
13796;SHT30;40911;51.552;9.874;2024-02-15T12:25:39;12.67;95.63
13796;SHT30;40911;51.552;9.874;2024-02-15T12:28:02;12.53;95.77
13796;SHT30;40911;51.552;9.874;2024-02-15T12:30:25;12.46;95.63
13796;SHT30;40911;51.552;9.874;2024-02-15T12:32:51;12.46;95.62
13796;SHT30;40911;51.552;9.874;2024-02-15T12:35:13;12.37;95.59
13796;SHT30;40911;51.552;9.874;2024-02-15T12:37:37;12.40;95.91
13796;SHT30;40911;51.552;9.874;2024-02-15T12:40:10;12.33;95.65
13796;SHT30;40911;51.552;9.874;2024-02-15T12:42:39;12.32;95.48
13796;SHT30;40911;51.552;9.874;2024-02-15T12:45:00;12.33;95.80
13796;SHT30;40911;51.552;9.874;2024-02-15T12:47:24;12.32;96.14
13796;SHT30;40911;51.552;9.874;2024-02-15T12:49:45;12.32;95.93
13796;SHT30;40911;51.552;9.874;2024-02-15T12:52:33;12.34;95.83
13796;SHT30;40911;51.552;9.874;2024-02-15T12:55:06;12.38;96.39
13796;SHT30;40911;51.552;9.874;2024-02-15T12:57:29;12.44;96.47
13796;SHT30;40911;51.552;9.874;2024-02-15T12:59:54;12.40;96.04
13796;SHT30;40911;51.552;9.874;2024-02-15T13:02:15;12.50;96.41
13796;SHT30;40911;51.552;9.874;2024-02-15T13:04:37;12.47;95.75
13796;SHT30;40911;51.552;9.874;2024-02-15T13:07:00;12.51;96.04
13796;SHT30;40911;51.552;9.874;2024-02-15T13:09:21;12.48;96.30
13796;SHT30;40911;51.552;9.874;2024-02-15T13:11:43;12.51;95.94
13796;SHT30;40911;51.552;9.874;2024-02-15T13:14:07;12.57;96.28
13796;SHT30;40911;51.552;9.874;2024-02-15T13:16:32;12.61;96.16
13796;SHT30;40911;51.552;9.874;2024-02-15T13:18:54;12.71;96.02
13796;SHT30;40911;51.552;9.874;2024-02-15T13:21:16;12.67;96.31
13796;SHT30;40911;51.552;9.874;2024-02-15T13:23:37;12.67;96.04
13796;SHT30;40911;51.552;9.874;2024-02-15T13:25:59;12.68;95.93
13796;SHT30;40911;51.552;9.874;2024-02-15T13:28:24;12.72;96.15
13796;SHT30;40911;51.552;9.874;2024-02-15T13:30:47;12.71;95.92
13796;SHT30;40911;51.552;9.874;2024-02-15T13:33:11;12.69;96.02
13796;SHT30;40911;51.552;9.874;2024-02-15T13:35:33;12.63;95.78
13796;SHT30;40911;51.552;9.874;2024-02-15T13:37:54;12.58;95.31
13796;SHT30;40911;51.552;9.874;2024-02-15T13:40:18;12.58;95.35
13796;SHT30;40911;51.552;9.874;2024-02-15T13:42:44;12.55;95.68
13796;SHT30;40911;51.552;9.874;2024-02-15T13:45:09;12.55;95.34
13796;SHT30;40911;51.552;9.874;2024-02-15T13:47:34;12.57;95.32
13796;SHT30;40911;51.552;9.874;2024-02-15T13:49:57;12.54;95.27
13796;SHT30;40911;51.552;9.874;2024-02-15T13:52:19;12.51;95.77
13796;SHT30;40911;51.552;9.874;2024-02-15T13:54:42;12.50;96.22
13796;SHT30;40911;51.552;9.874;2024-02-15T13:57:04;12.46;96.63
13796;SHT30;40911;51.552;9.874;2024-02-15T13:59:26;12.43;96.85
13796;SHT30;40911;51.552;9.874;2024-02-15T14:01:49;12.43;96.95
13796;SHT30;40911;51.552;9.874;2024-02-15T14:04:11;12.48;96.63
13796;SHT30;40911;51.552;9.874;2024-02-15T14:06:34;12.51;96.57
13796;SHT30;40911;51.552;9.874;2024-02-15T14:08:56;12.54;96.74
13796;SHT30;40911;51.552;9.874;2024-02-15T14:11:18;12.58;96.66
13796;SHT30;40911;51.552;9.874;2024-02-15T14:13:39;12.57;96.04
13796;SHT30;40911;51.552;9.874;2024-02-15T14:16:01;12.63;96.17
13796;SHT30;40911;51.552;9.874;2024-02-15T14:18:23;12.64;96.47
13796;SHT30;40911;51.552;9.874;2024-02-15T14:20:44;12.63;96.54
13796;SHT30;40911;51.552;9.874;2024-02-15T14:23:08;12.65;96.19
13796;SHT30;40911;51.552;9.874;2024-02-15T14:25:34;12.68;96.32
13796;SHT30;40911;51.552;9.874;2024-02-15T14:27:55;12.69;96.37
13796;SHT30;40911;51.552;9.874;2024-02-15T14:30:17;12.67;96.01
13796;SHT30;40911;51.552;9.874;2024-02-15T14:32:56;12.72;96.34
13796;SHT30;40911;51.552;9.874;2024-02-15T14:35:24;12.67;96.18
13796;SHT30;40911;51.552;9.874;2024-02-15T14:37:46;12.71;96.07
13796;SHT30;40911;51.552;9.874;2024-02-15T14:40:11;12.72;96.34
13796;SHT30;40911;51.552;9.874;2024-02-15T14:42:34;12.74;96.36
13796;SHT30;40911;51.552;9.874;2024-02-15T14:44:57;12.75;96.24
13796;SHT30;40911;51.552;9.874;2024-02-15T14:47:19;12.76;96.21
13796;SHT30;40911;51.552;9.874;2024-02-15T14:49:41;12.81;95.90
13796;SHT30;40911;51.552;9.874;2024-02-15T14:52:04;12.81;96.05
13796;SHT30;40911;51.552;9.874;2024-02-15T14:54:25;12.84;95.72
13796;SHT30;40911;51.552;9.874;2024-02-15T14:56:48;12.85;95.57
13796;SHT30;40911;51.552;9.874;2024-02-15T14:59:10;12.86;95.38
13796;SHT30;40911;51.552;9.874;2024-02-15T15:01:34;12.85;95.25
13796;SHT30;40911;51.552;9.874;2024-02-15T15:03:57;12.88;95.24
13796;SHT30;40911;51.552;9.874;2024-02-15T15:06:24;12.89;94.98
13796;SHT30;40911;51.552;9.874;2024-02-15T15:09:03;12.88;95.21